Jonathan — IIQB2 — position and weather

sailwx.info

Track history (hours):
 
Tides and Currents Weather Stations Pressure Air Temp Water Temp Dewpoint Dewpoint Depression Visibility Wind Speed Wind Dir Waves Ship Positions

Jonathan

Last reported at 2017-Dec-12 16:40 UTC. Time now 2018-Feb-24 14:33 UTC.
Position N 38°48' E 008°49'.
Warning: this ship's position is months out of date.

Type: Fishing. MMSI: 247305860.

Date/timePositionNaut miles runAvg speedWind from/ knotsBaromVisibWave heightAir tempDewpointWater temp
2017-Dec-12 16:40N 38°48' E 008°49'1 7.9
2017-Dec-12 16:30N 38°48' E 008°47'  
2017-Dec-03 14:33N 39°13' E 002°33'0 8.9
2017-Dec-03 14:30N 39°13' E 002°33'4 8.7
2017-Dec-03 14:00N 39°18' E 002°34'4 8.1
2017-Dec-03 13:30N 39°22' E 002°35'4 8.0
2017-Dec-03 13:00N 39°25' E 002°37'4 8.1
2017-Dec-03 12:30N 39°29' E 002°38'4 7.7
2017-Dec-03 12:00N 39°33' E 002°38'1 1.7
2017-Dec-03 11:30N 39°34' E 002°38'0 0.0
2017-Dec-03 11:00N 39°34' E 002°38'0 0.0
2017-Dec-03 10:30N 39°34' E 002°38'0 0.0
2017-Dec-03 10:00N 39°34' E 002°38'0 0.0
2017-Dec-03 09:30N 39°34' E 002°38'0 0.0
2017-Dec-03 09:00N 39°34' E 002°38'0 0.0
2017-Dec-03 08:30N 39°34' E 002°38'0 0.0
2017-Dec-03 08:00N 39°34' E 002°38'0 0.0
2017-Dec-03 07:30N 39°34' E 002°38'0 0.0
2017-Dec-03 07:00N 39°34' E 002°38'0 0.0
2017-Dec-03 06:30N 39°34' E 002°38'0 0.0
2017-Dec-03 06:00N 39°34' E 002°38'0 0.0
2017-Dec-03 05:30N 39°34' E 002°38'0 0.0
2017-Dec-03 05:00N 39°34' E 002°38'0 0.0
2017-Dec-03 04:30N 39°34' E 002°38'0 0.0
2017-Dec-03 04:00N 39°34' E 002°38'0 0.0
2017-Dec-03 03:30N 39°34' E 002°38'0 0.0
2017-Dec-03 03:00N 39°34' E 002°38'0 0.0
2017-Dec-03 02:30N 39°34' E 002°38'0 0.0
2017-Dec-03 02:00N 39°34' E 002°38'0 0.0
2017-Dec-03 01:30N 39°34' E 002°38'0 0.0
2017-Dec-03 01:00N 39°34' E 002°38'0 0.0
2017-Dec-03 00:30N 39°34' E 002°38'0 0.0
2017-Dec-03 00:00N 39°34' E 002°38'0 0.0
2017-Dec-02 23:30N 39°34' E 002°38'0 0.0
2017-Dec-02 23:00N 39°34' E 002°38'0 0.0
2017-Dec-02 22:30N 39°34' E 002°38'0 0.0
2017-Dec-02 22:00N 39°34' E 002°38'0 0.0
2017-Dec-02 21:30N 39°34' E 002°38'0 0.0
2017-Dec-02 21:00N 39°34' E 002°38'0 0.0
2017-Dec-02 20:30N 39°34' E 002°38'0 0.0
2017-Dec-02 20:00N 39°34' E 002°38'0 0.0
2017-Dec-02 19:30N 39°34' E 002°38'0 0.0
2017-Dec-02 19:00N 39°34' E 002°38'0 0.0
2017-Dec-02 18:30N 39°34' E 002°38'0 0.0
2017-Dec-02 18:00N 39°34' E 002°38'0 0.0
2017-Dec-02 17:30N 39°34' E 002°38'0 0.0
2017-Dec-02 17:00N 39°34' E 002°38'  
Track history (hours):
 
Tides and Currents Weather Stations Pressure Air Temp Water Temp Dewpoint Dewpoint Depression Visibility Wind Speed Wind Dir Waves Ship Positions

Jonathan

Last reported at 2017-Dec-12 16:40 UTC. Time now 2018-Feb-24 14:33 UTC.
Position N 38°48' E 008°49'.
Warning: this ship's position is months out of date.

Type: Fishing. MMSI: 247305860.

Date/timePositionNaut miles runAvg speedWind from/ knotsBaromVisibWave heightAir tempDewpointWater temp
2017-Dec-12 16:40N 38°48' E 008°49'1 7.9
2017-Dec-12 16:30N 38°48' E 008°47'  
2017-Dec-03 14:33N 39°13' E 002°33'0 8.9
2017-Dec-03 14:30N 39°13' E 002°33'4 8.7
2017-Dec-03 14:00N 39°18' E 002°34'4 8.1
2017-Dec-03 13:30N 39°22' E 002°35'4 8.0
2017-Dec-03 13:00N 39°25' E 002°37'4 8.1
2017-Dec-03 12:30N 39°29' E 002°38'4 7.7
2017-Dec-03 12:00N 39°33' E 002°38'1 1.7
2017-Dec-03 11:30N 39°34' E 002°38'0 0.0
2017-Dec-03 11:00N 39°34' E 002°38'0 0.0
2017-Dec-03 10:30N 39°34' E 002°38'0 0.0
2017-Dec-03 10:00N 39°34' E 002°38'0 0.0
2017-Dec-03 09:30N 39°34' E 002°38'0 0.0
2017-Dec-03 09:00N 39°34' E 002°38'0 0.0
2017-Dec-03 08:30N 39°34' E 002°38'0 0.0
2017-Dec-03 08:00N 39°34' E 002°38'0 0.0
2017-Dec-03 07:30N 39°34' E 002°38'0 0.0
2017-Dec-03 07:00N 39°34' E 002°38'0 0.0
2017-Dec-03 06:30N 39°34' E 002°38'0 0.0
2017-Dec-03 06:00N 39°34' E 002°38'0 0.0
2017-Dec-03 05:30N 39°34' E 002°38'0 0.0
2017-Dec-03 05:00N 39°34' E 002°38'0 0.0
2017-Dec-03 04:30N 39°34' E 002°38'0 0.0
2017-Dec-03 04:00N 39°34' E 002°38'0 0.0
2017-Dec-03 03:30N 39°34' E 002°38'0 0.0
2017-Dec-03 03:00N 39°34' E 002°38'0 0.0
2017-Dec-03 02:30N 39°34' E 002°38'0 0.0
2017-Dec-03 02:00N 39°34' E 002°38'0 0.0
2017-Dec-03 01:30N 39°34' E 002°38'0 0.0
2017-Dec-03 01:00N 39°34' E 002°38'0 0.0
2017-Dec-03 00:30N 39°34' E 002°38'0 0.0
2017-Dec-03 00:00N 39°34' E 002°38'0 0.0
2017-Dec-02 23:30N 39°34' E 002°38'0 0.0
2017-Dec-02 23:00N 39°34' E 002°38'0 0.0
2017-Dec-02 22:30N 39°34' E 002°38'0 0.0
2017-Dec-02 22:00N 39°34' E 002°38'0 0.0
2017-Dec-02 21:30N 39°34' E 002°38'0 0.0
2017-Dec-02 21:00N 39°34' E 002°38'0 0.0
2017-Dec-02 20:30N 39°34' E 002°38'0 0.0
2017-Dec-02 20:00N 39°34' E 002°38'0 0.0
2017-Dec-02 19:30N 39°34' E 002°38'0 0.0
2017-Dec-02 19:00N 39°34' E 002°38'0 0.0
2017-Dec-02 18:30N 39°34' E 002°38'0 0.0
2017-Dec-02 18:00N 39°34' E 002°38'0 0.0
2017-Dec-02 17:30N 39°34' E 002°38'0 0.0
2017-Dec-02 17:00N 39°34' E 002°38'  

Dump ship's entire track history